sensor_id;sensor_type;location;lat;lon;timestamp;P1;durP1;ratioP1;P2;durP2;ratioP2
63688;SDS011;54895;40.928;14.480;2024-02-14T00:01:07;2.33;;;1.02;;
63688;SDS011;54895;40.928;14.480;2024-02-14T00:03:36;1.83;;;1.08;;
63688;SDS011;54895;40.928;14.480;2024-02-14T00:06:04;3.35;;;1.10;;
63688;SDS011;54895;40.928;14.480;2024-02-14T00:08:31;1.65;;;1.00;;
63688;SDS011;54895;40.928;14.480;2024-02-14T00:10:58;1.75;;;1.33;;
63688;SDS011;54895;40.928;14.480;2024-02-14T00:13:24;1.83;;;1.23;;
63688;SDS011;54895;40.928;14.480;2024-02-14T00:15:50;3.53;;;1.15;;
63688;SDS011;54895;40.928;14.480;2024-02-14T00:18:17;1.95;;;1.20;;
63688;SDS011;54895;40.928;14.480;2024-02-14T00:20:43;2.38;;;1.38;;
63688;SDS011;54895;40.928;14.480;2024-02-14T00:23:09;2.22;;;1.20;;
63688;SDS011;54895;40.928;14.480;2024-02-14T00:25:37;0.90;;;0.80;;
63688;SDS011;54895;40.928;14.480;2024-02-14T00:28:03;1.75;;;1.05;;
63688;SDS011;54895;40.928;14.480;2024-02-14T00:30:31;1.38;;;0.90;;
63688;SDS011;54895;40.928;14.480;2024-02-14T00:33:23;1.95;;;0.90;;
63688;SDS011;54895;40.928;14.480;2024-02-14T00:39:24;2.28;;;1.00;;
63688;SDS011;54895;40.928;14.480;2024-02-14T00:41:51;2.78;;;1.10;;
63688;SDS011;54895;40.928;14.480;2024-02-14T00:44:18;2.35;;;1.50;;
63688;SDS011;54895;40.928;14.480;2024-02-14T00:46:45;2.55;;;1.20;;
63688;SDS011;54895;40.928;14.480;2024-02-14T00:49:12;2.80;;;2.00;;
63688;SDS011;54895;40.928;14.480;2024-02-14T00:51:39;3.25;;;2.00;;
63688;SDS011;54895;40.928;14.480;2024-02-14T00:54:06;4.93;;;2.72;;
63688;SDS011;54895;40.928;14.480;2024-02-14T00:56:33;4.30;;;2.47;;
63688;SDS011;54895;40.928;14.480;2024-02-14T00:59:00;7.55;;;3.40;;
63688;SDS011;54895;40.928;14.480;2024-02-14T01:01:27;5.90;;;3.70;;
63688;SDS011;54895;40.928;14.480;2024-02-14T01:03:53;4.82;;;3.72;;
63688;SDS011;54895;40.928;14.480;2024-02-14T01:06:20;7.40;;;3.40;;
63688;SDS011;54895;40.928;14.480;2024-02-14T01:08:46;7.03;;;4.18;;
63688;SDS011;54895;40.928;14.480;2024-02-14T01:11:13;7.55;;;4.53;;
63688;SDS011;54895;40.928;14.480;2024-02-14T01:13:39;7.97;;;4.53;;
63688;SDS011;54895;40.928;14.480;2024-02-14T01:16:07;7.95;;;5.15;;
63688;SDS011;54895;40.928;14.480;2024-02-14T01:18:33;8.35;;;4.40;;
63688;SDS011;54895;40.928;14.480;2024-02-14T01:21:00;5.75;;;4.63;;
63688;SDS011;54895;40.928;14.480;2024-02-14T01:23:26;7.05;;;4.85;;
63688;SDS011;54895;40.928;14.480;2024-02-14T01:25:53;7.10;;;4.97;;
63688;SDS011;54895;40.928;14.480;2024-02-14T01:28:21;8.45;;;4.57;;
63688;SDS011;54895;40.928;14.480;2024-02-14T01:30:47;9.07;;;4.70;;
63688;SDS011;54895;40.928;14.480;2024-02-14T01:33:14;6.35;;;4.90;;
63688;SDS011;54895;40.928;14.480;2024-02-14T01:39:15;6.78;;;4.40;;
63688;SDS011;54895;40.928;14.480;2024-02-14T01:41:44;6.53;;;4.07;;
63688;SDS011;54895;40.928;14.480;2024-02-14T01:44:12;6.55;;;4.00;;
63688;SDS011;54895;40.928;14.480;2024-02-14T01:46:38;7.45;;;4.13;;
63688;SDS011;54895;40.928;14.480;2024-02-14T01:49:04;4.63;;;3.63;;
63688;SDS011;54895;40.928;14.480;2024-02-14T01:51:30;6.20;;;3.58;;
63688;SDS011;54895;40.928;14.480;2024-02-14T01:53:57;5.07;;;3.90;;
63688;SDS011;54895;40.928;14.480;2024-02-14T01:56:24;4.88;;;3.42;;
63688;SDS011;54895;40.928;14.480;2024-02-14T01:58:53;5.13;;;2.70;;
63688;SDS011;54895;40.928;14.480;2024-02-14T02:01:19;7.35;;;2.83;;
63688;SDS011;54895;40.928;14.480;2024-02-14T02:03:46;6.78;;;3.28;;
63688;SDS011;54895;40.928;14.480;2024-02-14T02:06:13;6.53;;;3.50;;
63688;SDS011;54895;40.928;14.480;2024-02-14T02:08:41;5.10;;;3.40;;
63688;SDS011;54895;40.928;14.480;2024-02-14T02:11:11;5.35;;;3.13;;
63688;SDS011;54895;40.928;14.480;2024-02-14T02:13:57;4.95;;;3.00;;
63688;SDS011;54895;40.928;14.480;2024-02-14T02:16:43;5.75;;;3.10;;
63688;SDS011;54895;40.928;14.480;2024-02-14T02:19:29;6.47;;;3.70;;
63688;SDS011;54895;40.928;14.480;2024-02-14T02:22:15;5.25;;;2.63;;
63688;SDS011;54895;40.928;14.480;2024-02-14T02:25:02;3.72;;;2.25;;
63688;SDS011;54895;40.928;14.480;2024-02-14T02:27:32;6.07;;;2.75;;
63688;SDS011;54895;40.928;14.480;2024-02-14T02:30:18;5.25;;;2.13;;
63688;SDS011;54895;40.928;14.480;2024-02-14T02:32:44;3.58;;;2.42;;
63688;SDS011;54895;40.928;14.480;2024-02-14T02:39:18;5.95;;;3.83;;
63688;SDS011;54895;40.928;14.480;2024-02-14T02:42:04;8.38;;;4.28;;
63688;SDS011;54895;40.928;14.480;2024-02-14T02:44:56;6.43;;;3.85;;
63688;SDS011;54895;40.928;14.480;2024-02-14T02:47:48;8.13;;;4.00;;
63688;SDS011;54895;40.928;14.480;2024-02-14T02:50:37;5.45;;;3.80;;
63688;SDS011;54895;40.928;14.480;2024-02-14T02:53:23;6.32;;;4.28;;
63688;SDS011;54895;40.928;14.480;2024-02-14T02:56:09;5.78;;;3.47;;
63688;SDS011;54895;40.928;14.480;2024-02-14T02:58:38;8.40;;;4.60;;
63688;SDS011;54895;40.928;14.480;2024-02-14T03:01:07;5.90;;;4.00;;
63688;SDS011;54895;40.928;14.480;2024-02-14T03:03:53;3.67;;;2.40;;
63688;SDS011;54895;40.928;14.480;2024-02-14T03:06:39;1.77;;;1.23;;
63688;SDS011;54895;40.928;14.480;2024-02-14T03:09:20;4.07;;;1.90;;
63688;SDS011;54895;40.928;14.480;2024-02-14T03:12:09;4.10;;;2.38;;
63688;SDS011;54895;40.928;14.480;2024-02-14T03:14:56;4.50;;;2.60;;
63688;SDS011;54895;40.928;14.480;2024-02-14T03:17:32;2.85;;;1.65;;
63688;SDS011;54895;40.928;14.480;2024-02-14T03:19:59;4.30;;;3.08;;
63688;SDS011;54895;40.928;14.480;2024-02-14T03:22:26;3.50;;;2.60;;
63688;SDS011;54895;40.928;14.480;2024-02-14T03:24:52;4.80;;;2.83;;
63688;SDS011;54895;40.928;14.480;2024-02-14T03:27:18;6.03;;;3.05;;
63688;SDS011;54895;40.928;14.480;2024-02-14T03:29:45;4.32;;;3.15;;
63688;SDS011;54895;40.928;14.480;2024-02-14T03:32:13;9.10;;;4.20;;
63688;SDS011;54895;40.928;14.480;2024-02-14T03:34:39;9.48;;;4.05;;
63688;SDS011;54895;40.928;14.480;2024-02-14T03:37:06;6.18;;;3.50;;
63688;SDS011;54895;40.928;14.480;2024-02-14T03:39:32;6.78;;;3.45;;
63688;SDS011;54895;40.928;14.480;2024-02-14T03:41:59;5.38;;;3.20;;
63688;SDS011;54895;40.928;14.480;2024-02-14T03:44:28;7.85;;;3.80;;
63688;SDS011;54895;40.928;14.480;2024-02-14T03:46:54;3.70;;;2.60;;
63688;SDS011;54895;40.928;14.480;2024-02-14T03:49:21;4.15;;;2.53;;
63688;SDS011;54895;40.928;14.480;2024-02-14T03:51:47;4.63;;;2.42;;
63688;SDS011;54895;40.928;14.480;2024-02-14T03:54:15;4.43;;;2.55;;
63688;SDS011;54895;40.928;14.480;2024-02-14T03:56:41;4.93;;;2.40;;
63688;SDS011;54895;40.928;14.480;2024-02-14T03:59:07;5.97;;;3.08;;
63688;SDS011;54895;40.928;14.480;2024-02-14T04:01:33;4.68;;;2.50;;
63688;SDS011;54895;40.928;14.480;2024-02-14T04:04:00;3.42;;;2.45;;
63688;SDS011;54895;40.928;14.480;2024-02-14T04:06:27;3.72;;;2.58;;
63688;SDS011;54895;40.928;14.480;2024-02-14T04:08:53;4.25;;;2.20;;
63688;SDS011;54895;40.928;14.480;2024-02-14T04:11:19;3.65;;;2.22;;
63688;SDS011;54895;40.928;14.480;2024-02-14T04:13:45;5.82;;;2.50;;
63688;SDS011;54895;40.928;14.480;2024-02-14T04:16:12;4.55;;;2.10;;
63688;SDS011;54895;40.928;14.480;2024-02-14T04:18:50;5.45;;;2.10;;
63688;SDS011;54895;40.928;14.480;2024-02-14T04:21:16;5.32;;;2.60;;
63688;SDS011;54895;40.928;14.480;2024-02-14T04:23:42;2.63;;;1.83;;
63688;SDS011;54895;40.928;14.480;2024-02-14T04:26:08;3.03;;;2.03;;
63688;SDS011;54895;40.928;14.480;2024-02-14T04:28:35;3.88;;;2.30;;
63688;SDS011;54895;40.928;14.480;2024-02-14T04:31:01;4.43;;;2.45;;
63688;SDS011;54895;40.928;14.480;2024-02-14T04:33:34;3.72;;;2.30;;
63688;SDS011;54895;40.928;14.480;2024-02-14T04:39:32;4.82;;;2.45;;
63688;SDS011;54895;40.928;14.480;2024-02-14T04:41:58;6.85;;;2.75;;
63688;SDS011;54895;40.928;14.480;2024-02-14T04:44:25;6.22;;;2.97;;
63688;SDS011;54895;40.928;14.480;2024-02-14T04:46:51;4.78;;;2.90;;
63688;SDS011;54895;40.928;14.480;2024-02-14T04:49:17;5.07;;;3.00;;
63688;SDS011;54895;40.928;14.480;2024-02-14T04:51:44;5.53;;;2.92;;
63688;SDS011;54895;40.928;14.480;2024-02-14T04:54:10;4.78;;;2.97;;
63688;SDS011;54895;40.928;14.480;2024-02-14T04:56:37;12.85;;;7.40;;
63688;SDS011;54895;40.928;14.480;2024-02-14T04:59:03;8.77;;;3.42;;
63688;SDS011;54895;40.928;14.480;2024-02-14T05:01:30;6.18;;;3.10;;
63688;SDS011;54895;40.928;14.480;2024-02-14T05:03:57;5.40;;;3.53;;
63688;SDS011;54895;40.928;14.480;2024-02-14T05:06:24;7.47;;;3.35;;
63688;SDS011;54895;40.928;14.480;2024-02-14T05:08:50;5.38;;;3.70;;
63688;SDS011;54895;40.928;14.480;2024-02-14T05:11:17;5.45;;;3.05;;
63688;SDS011;54895;40.928;14.480;2024-02-14T05:13:44;4.00;;;3.15;;
63688;SDS011;54895;40.928;14.480;2024-02-14T05:16:11;7.82;;;3.28;;
63688;SDS011;54895;40.928;14.480;2024-02-14T05:18:37;4.22;;;3.30;;
63688;SDS011;54895;40.928;14.480;2024-02-14T05:21:05;5.57;;;3.00;;
63688;SDS011;54895;40.928;14.480;2024-02-14T05:23:33;5.45;;;3.22;;
63688;SDS011;54895;40.928;14.480;2024-02-14T05:26:02;5.25;;;3.20;;
63688;SDS011;54895;40.928;14.480;2024-02-14T05:28:29;6.05;;;3.50;;
63688;SDS011;54895;40.928;14.480;2024-02-14T05:30:59;5.97;;;3.40;;
63688;SDS011;54895;40.928;14.480;2024-02-14T05:33:34;7.15;;;3.22;;
63688;SDS011;54895;40.928;14.480;2024-02-14T05:39:43;7.40;;;3.40;;
63688;SDS011;54895;40.928;14.480;2024-02-14T05:42:10;5.72;;;3.50;;
63688;SDS011;54895;40.928;14.480;2024-02-14T05:44:36;6.70;;;3.70;;
63688;SDS011;54895;40.928;14.480;2024-02-14T05:47:02;10.00;;;3.55;;
63688;SDS011;54895;40.928;14.480;2024-02-14T05:49:29;9.20;;;4.10;;
63688;SDS011;54895;40.928;14.480;2024-02-14T05:51:55;7.03;;;3.60;;
63688;SDS011;54895;40.928;14.480;2024-02-14T05:54:21;7.78;;;3.83;;
63688;SDS011;54895;40.928;14.480;2024-02-14T05:56:47;8.70;;;3.42;;
63688;SDS011;54895;40.928;14.480;2024-02-14T05:59:14;8.18;;;4.28;;
63688;SDS011;54895;40.928;14.480;2024-02-14T06:01:40;7.25;;;4.55;;
63688;SDS011;54895;40.928;14.480;2024-02-14T06:04:06;7.20;;;4.78;;
63688;SDS011;54895;40.928;14.480;2024-02-14T06:06:32;9.95;;;4.95;;
63688;SDS011;54895;40.928;14.480;2024-02-14T06:08:59;8.27;;;4.45;;
63688;SDS011;54895;40.928;14.480;2024-02-14T06:15:51;6.00;;;4.15;;
63688;SDS011;54895;40.928;14.480;2024-02-14T06:18:18;6.97;;;4.13;;
63688;SDS011;54895;40.928;14.480;2024-02-14T06:20:45;10.25;;;4.30;;
63688;SDS011;54895;40.928;14.480;2024-02-14T06:23:13;7.57;;;5.00;;
63688;SDS011;54895;40.928;14.480;2024-02-14T06:25:39;7.38;;;4.80;;
63688;SDS011;54895;40.928;14.480;2024-02-14T06:28:08;9.52;;;5.68;;
63688;SDS011;54895;40.928;14.480;2024-02-14T06:30:35;7.78;;;4.60;;
63688;SDS011;54895;40.928;14.480;2024-02-14T06:33:03;8.80;;;4.50;;
63688;SDS011;54895;40.928;14.480;2024-02-14T06:39:46;9.32;;;5.20;;
63688;SDS011;54895;40.928;14.480;2024-02-14T06:42:15;11.25;;;5.38;;
63688;SDS011;54895;40.928;14.480;2024-02-14T06:44:41;4.82;;;2.95;;
63688;SDS011;54895;40.928;14.480;2024-02-14T06:47:08;10.52;;;5.50;;
63688;SDS011;54895;40.928;14.480;2024-02-14T06:49:41;9.07;;;4.32;;
63688;SDS011;54895;40.928;14.480;2024-02-14T06:52:13;10.32;;;2.75;;
63688;SDS011;54895;40.928;14.480;2024-02-14T06:54:40;9.18;;;5.63;;
63688;SDS011;54895;40.928;14.480;2024-02-14T06:57:06;12.13;;;4.65;;
63688;SDS011;54895;40.928;14.480;2024-02-14T06:59:33;10.65;;;5.63;;
63688;SDS011;54895;40.928;14.480;2024-02-14T07:01:59;11.57;;;4.72;;
63688;SDS011;54895;40.928;14.480;2024-02-14T07:04:27;13.70;;;5.47;;
63688;SDS011;54895;40.928;14.480;2024-02-14T07:06:53;12.75;;;5.07;;
63688;SDS011;54895;40.928;14.480;2024-02-14T07:09:19;7.75;;;3.38;;
63688;SDS011;54895;40.928;14.480;2024-02-14T07:11:45;9.35;;;3.58;;
63688;SDS011;54895;40.928;14.480;2024-02-14T07:14:12;8.93;;;3.30;;
63688;SDS011;54895;40.928;14.480;2024-02-14T07:16:39;3.25;;;2.08;;
63688;SDS011;54895;40.928;14.480;2024-02-14T07:19:06;7.75;;;2.88;;
63688;SDS011;54895;40.928;14.480;2024-02-14T07:21:32;8.45;;;2.72;;
63688;SDS011;54895;40.928;14.480;2024-02-14T07:23:59;6.35;;;2.33;;
63688;SDS011;54895;40.928;14.480;2024-02-14T07:26:26;4.47;;;1.88;;
63688;SDS011;54895;40.928;14.480;2024-02-14T07:28:52;7.82;;;2.15;;
63688;SDS011;54895;40.928;14.480;2024-02-14T07:31:18;4.25;;;1.60;;
63688;SDS011;54895;40.928;14.480;2024-02-14T07:33:45;3.58;;;1.70;;
63688;SDS011;54895;40.928;14.480;2024-02-14T07:36:12;4.32;;;1.73;;
63688;SDS011;54895;40.928;14.480;2024-02-14T07:38:38;3.40;;;1.10;;
63688;SDS011;54895;40.928;14.480;2024-02-14T07:41:05;4.75;;;1.40;;
63688;SDS011;54895;40.928;14.480;2024-02-14T07:43:34;1.48;;;1.15;;
63688;SDS011;54895;40.928;14.480;2024-02-14T07:46:00;2.50;;;1.40;;
63688;SDS011;54895;40.928;14.480;2024-02-14T07:48:26;3.58;;;1.00;;
63688;SDS011;54895;40.928;14.480;2024-02-14T07:50:53;2.88;;;1.20;;
63688;SDS011;54895;40.928;14.480;2024-02-14T07:53:19;1.08;;;0.80;;
63688;SDS011;54895;40.928;14.480;2024-02-14T07:55:46;1.63;;;0.98;;
63688;SDS011;54895;40.928;14.480;2024-02-14T07:58:12;2.38;;;0.73;;
63688;SDS011;54895;40.928;14.480;2024-02-14T08:00:40;2.30;;;1.10;;
63688;SDS011;54895;40.928;14.480;2024-02-14T08:03:06;2.70;;;1.00;;
63688;SDS011;54895;40.928;14.480;2024-02-14T08:05:33;4.28;;;1.20;;
63688;SDS011;54895;40.928;14.480;2024-02-14T08:08:00;1.75;;;1.00;;
63688;SDS011;54895;40.928;14.480;2024-02-14T08:10:26;2.17;;;0.80;;
63688;SDS011;54895;40.928;14.480;2024-02-14T08:12:52;1.65;;;0.60;;
63688;SDS011;54895;40.928;14.480;2024-02-14T08:15:18;2.95;;;0.70;;
63688;SDS011;54895;40.928;14.480;2024-02-14T08:17:46;3.25;;;0.85;;
63688;SDS011;54895;40.928;14.480;2024-02-14T08:20:12;2.25;;;0.80;;
63688;SDS011;54895;40.928;14.480;2024-02-14T08:22:47;2.40;;;1.25;;
63688;SDS011;54895;40.928;14.480;2024-02-14T08:25:14;2.35;;;1.20;;
63688;SDS011;54895;40.928;14.480;2024-02-14T08:27:40;2.42;;;0.90;;
63688;SDS011;54895;40.928;14.480;2024-02-14T08:30:06;1.52;;;1.08;;
63688;SDS011;54895;40.928;14.480;2024-02-14T08:32:34;4.90;;;1.70;;
63688;SDS011;54895;40.928;14.480;2024-02-14T08:35:00;2.85;;;1.20;;
63688;SDS011;54895;40.928;14.480;2024-02-14T08:40:13;0.70;;;0.50;;
63688;SDS011;54895;40.928;14.480;2024-02-14T08:42:40;1.20;;;0.88;;
63688;SDS011;54895;40.928;14.480;2024-02-14T08:45:06;5.80;;;1.42;;
63688;SDS011;54895;40.928;14.480;2024-02-14T08:47:34;2.45;;;1.00;;
63688;SDS011;54895;40.928;14.480;2024-02-14T08:50:00;1.90;;;1.20;;
63688;SDS011;54895;40.928;14.480;2024-02-14T08:52:27;2.33;;;1.42;;
63688;SDS011;54895;40.928;14.480;2024-02-14T08:54:54;2.15;;;1.13;;
63688;SDS011;54895;40.928;14.480;2024-02-14T08:57:20;5.75;;;1.20;;
63688;SDS011;54895;40.928;14.480;2024-02-14T08:59:46;2.45;;;0.95;;
63688;SDS011;54895;40.928;14.480;2024-02-14T09:02:16;7.55;;;1.30;;
63688;SDS011;54895;40.928;14.480;2024-02-14T09:04:42;4.57;;;1.00;;
63688;SDS011;54895;40.928;14.480;2024-02-14T09:07:10;5.72;;;1.40;;
63688;SDS011;54895;40.928;14.480;2024-02-14T09:09:36;0.95;;;0.60;;
63688;SDS011;54895;40.928;14.480;2024-02-14T09:12:04;2.10;;;1.13;;
63688;SDS011;54895;40.928;14.480;2024-02-14T09:14:31;2.75;;;1.05;;
63688;SDS011;54895;40.928;14.480;2024-02-14T09:16:57;2.08;;;1.25;;
63688;SDS011;54895;40.928;14.480;2024-02-14T09:19:23;4.00;;;1.20;;
63688;SDS011;54895;40.928;14.480;2024-02-14T09:21:52;2.85;;;0.90;;
63688;SDS011;54895;40.928;14.480;2024-02-14T09:24:19;2.08;;;0.90;;
63688;SDS011;54895;40.928;14.480;2024-02-14T09:26:46;3.33;;;1.50;;
63688;SDS011;54895;40.928;14.480;2024-02-14T09:29:20;0.90;;;0.60;;
63688;SDS011;54895;40.928;14.480;2024-02-14T09:31:50;3.33;;;1.40;;
63688;SDS011;54895;40.928;14.480;2024-02-14T09:34:25;2.53;;;1.40;;
63688;SDS011;54895;40.928;14.480;2024-02-14T09:38:29;2.75;;;1.23;;
63688;SDS011;54895;40.928;14.480;2024-02-14T09:41:42;2.58;;;1.30;;
63688;SDS011;54895;40.928;14.480;2024-02-14T09:43:49;2.20;;;0.88;;
63688;SDS011;54895;40.928;14.480;2024-02-14T09:46:16;2.90;;;1.20;;
63688;SDS011;54895;40.928;14.480;2024-02-14T09:48:43;4.75;;;1.40;;
63688;SDS011;54895;40.928;14.480;2024-02-14T09:51:11;3.65;;;1.33;;
63688;SDS011;54895;40.928;14.480;2024-02-14T09:53:38;2.63;;;0.88;;
63688;SDS011;54895;40.928;14.480;2024-02-14T09:56:05;1.77;;;1.20;;
63688;SDS011;54895;40.928;14.480;2024-02-14T09:58:34;3.00;;;1.42;;
63688;SDS011;54895;40.928;14.480;2024-02-14T10:01:02;3.03;;;1.13;;
63688;SDS011;54895;40.928;14.480;2024-02-14T10:03:28;2.50;;;1.20;;
63688;SDS011;54895;40.928;14.480;2024-02-14T10:05:55;4.05;;;1.10;;
63688;SDS011;54895;40.928;14.480;2024-02-14T10:08:21;1.30;;;0.90;;
63688;SDS011;54895;40.928;14.480;2024-02-14T10:10:49;2.22;;;1.10;;
63688;SDS011;54895;40.928;14.480;2024-02-14T10:13:18;2.47;;;1.38;;
63688;SDS011;54895;40.928;14.480;2024-02-14T10:15:45;2.38;;;1.00;;
63688;SDS011;54895;40.928;14.480;2024-02-14T10:18:12;2.30;;;1.38;;
63688;SDS011;54895;40.928;14.480;2024-02-14T10:20:40;1.67;;;0.80;;
63688;SDS011;54895;40.928;14.480;2024-02-14T10:23:10;2.10;;;1.10;;
63688;SDS011;54895;40.928;14.480;2024-02-14T10:25:38;4.65;;;1.02;;
63688;SDS011;54895;40.928;14.480;2024-02-14T10:28:05;3.63;;;1.10;;
63688;SDS011;54895;40.928;14.480;2024-02-14T10:30:38;1.63;;;1.15;;
63688;SDS011;54895;40.928;14.480;2024-02-14T10:33:06;5.30;;;1.35;;
63688;SDS011;54895;40.928;14.480;2024-02-14T10:35:34;1.15;;;0.70;;
63688;SDS011;54895;40.928;14.480;2024-02-14T10:38:03;1.75;;;1.20;;
63688;SDS011;54895;40.928;14.480;2024-02-14T10:40:32;0.60;;;0.60;;
63688;SDS011;54895;40.928;14.480;2024-02-14T10:42:59;2.97;;;1.20;;
63688;SDS011;54895;40.928;14.480;2024-02-14T10:45:26;1.35;;;0.90;;
63688;SDS011;54895;40.928;14.480;2024-02-14T10:47:53;1.90;;;0.95;;
63688;SDS011;54895;40.928;14.480;2024-02-14T10:50:24;2.17;;;1.00;;
63688;SDS011;54895;40.928;14.480;2024-02-14T10:52:53;1.65;;;1.17;;
63688;SDS011;54895;40.928;14.480;2024-02-14T10:55:24;1.27;;;1.17;;
63688;SDS011;54895;40.928;14.480;2024-02-14T10:57:59;1.65;;;1.05;;
63688;SDS011;54895;40.928;14.480;2024-02-14T11:00:27;1.50;;;0.93;;
63688;SDS011;54895;40.928;14.480;2024-02-14T11:02:55;5.32;;;1.63;;
63688;SDS011;54895;40.928;14.480;2024-02-14T11:05:22;3.55;;;1.40;;
63688;SDS011;54895;40.928;14.480;2024-02-14T11:07:50;1.17;;;1.00;;
63688;SDS011;54895;40.928;14.480;2024-02-14T11:10:19;1.40;;;0.90;;
63688;SDS011;54895;40.928;14.480;2024-02-14T11:12:47;1.05;;;0.80;;
63688;SDS011;54895;40.928;14.480;2024-02-14T11:15:17;1.30;;;0.80;;
63688;SDS011;54895;40.928;14.480;2024-02-14T11:17:46;1.00;;;0.60;;
63688;SDS011;54895;40.928;14.480;2024-02-14T11:20:21;1.48;;;0.90;;
63688;SDS011;54895;40.928;14.480;2024-02-14T11:22:58;1.17;;;0.80;;
63688;SDS011;54895;40.928;14.480;2024-02-14T11:25:32;0.55;;;0.50;;
63688;SDS011;54895;40.928;14.480;2024-02-14T11:28:15;1.42;;;0.77;;
63688;SDS011;54895;40.928;14.480;2024-02-14T11:30:43;2.42;;;0.60;;
63688;SDS011;54895;40.928;14.480;2024-02-14T11:33:14;1.30;;;0.52;;
63688;SDS011;54895;40.928;14.480;2024-02-14T11:35:42;2.08;;;0.73;;
63688;SDS011;54895;40.928;14.480;2024-02-14T11:38:12;1.17;;;0.60;;
63688;SDS011;54895;40.928;14.480;2024-02-14T11:40:40;1.10;;;0.52;;
63688;SDS011;54895;40.928;14.480;2024-02-14T11:43:25;1.05;;;0.55;;
63688;SDS011;54895;40.928;14.480;2024-02-14T11:45:53;1.13;;;0.70;;
63688;SDS011;54895;40.928;14.480;2024-02-14T11:48:19;1.38;;;0.50;;
63688;SDS011;54895;40.928;14.480;2024-02-14T11:50:47;0.60;;;0.50;;
63688;SDS011;54895;40.928;14.480;2024-02-14T11:53:14;0.90;;;0.60;;
63688;SDS011;54895;40.928;14.480;2024-02-14T11:55:45;0.43;;;0.40;;
63688;SDS011;54895;40.928;14.480;2024-02-14T11:58:16;2.67;;;0.93;;
63688;SDS011;54895;40.928;14.480;2024-02-14T12:00:44;1.88;;;0.90;;
63688;SDS011;54895;40.928;14.480;2024-02-14T12:03:12;1.00;;;0.70;;
63688;SDS011;54895;40.928;14.480;2024-02-14T12:05:41;3.72;;;1.98;;
63688;SDS011;54895;40.928;14.480;2024-02-14T12:08:10;0.70;;;0.50;;
63688;SDS011;54895;40.928;14.480;2024-02-14T12:10:37;0.30;;;0.30;;
63688;SDS011;54895;40.928;14.480;2024-02-14T12:13:22;2.08;;;0.93;;
63688;SDS011;54895;40.928;14.480;2024-02-14T12:15:49;2.55;;;0.52;;
63688;SDS011;54895;40.928;14.480;2024-02-14T12:18:17;1.20;;;0.60;;
63688;SDS011;54895;40.928;14.480;2024-02-14T12:20:46;1.10;;;0.40;;
63688;SDS011;54895;40.928;14.480;2024-02-14T12:23:15;0.35;;;0.20;;
63688;SDS011;54895;40.928;14.480;2024-02-14T12:25:47;0.75;;;0.20;;
63688;SDS011;54895;40.928;14.480;2024-02-14T12:28:18;0.70;;;0.38;;
63688;SDS011;54895;40.928;14.480;2024-02-14T12:30:46;1.45;;;0.52;;
63688;SDS011;54895;40.928;14.480;2024-02-14T12:33:24;1.40;;;0.35;;
63688;SDS011;54895;40.928;14.480;2024-02-14T12:35:54;2.05;;;0.60;;
63688;SDS011;54895;40.928;14.480;2024-02-14T12:38:22;0.75;;;0.40;;
63688;SDS011;54895;40.928;14.480;2024-02-14T12:40:50;1.30;;;0.50;;
63688;SDS011;54895;40.928;14.480;2024-02-14T12:43:20;2.83;;;0.90;;
63688;SDS011;54895;40.928;14.480;2024-02-14T12:45:47;0.93;;;0.52;;
63688;SDS011;54895;40.928;14.480;2024-02-14T12:48:21;2.20;;;1.00;;
63688;SDS011;54895;40.928;14.480;2024-02-14T12:50:50;0.75;;;0.50;;
63688;SDS011;54895;40.928;14.480;2024-02-14T12:53:18;4.28;;;0.98;;
63688;SDS011;54895;40.928;14.480;2024-02-14T12:55:46;2.90;;;0.57;;
63688;SDS011;54895;40.928;14.480;2024-02-14T12:58:13;1.05;;;0.77;;
63688;SDS011;54895;40.928;14.480;2024-02-14T13:00:40;3.70;;;1.42;;
63688;SDS011;54895;40.928;14.480;2024-02-14T13:03:07;0.38;;;0.30;;
63688;SDS011;54895;40.928;14.480;2024-02-14T13:05:33;0.40;;;0.32;;
63688;SDS011;54895;40.928;14.480;2024-02-14T13:08:02;0.82;;;0.50;;
63688;SDS011;54895;40.928;14.480;2024-02-14T13:10:28;1.15;;;0.52;;
63688;SDS011;54895;40.928;14.480;2024-02-14T13:12:57;3.08;;;1.15;;
63688;SDS011;54895;40.928;14.480;2024-02-14T13:15:23;1.92;;;0.77;;
63688;SDS011;54895;40.928;14.480;2024-02-14T13:17:50;0.45;;;0.40;;
63688;SDS011;54895;40.928;14.480;2024-02-14T13:20:16;1.13;;;0.43;;
63688;SDS011;54895;40.928;14.480;2024-02-14T13:22:43;4.53;;;1.60;;
63688;SDS011;54895;40.928;14.480;2024-02-14T13:25:09;2.08;;;0.77;;
63688;SDS011;54895;40.928;14.480;2024-02-14T13:27:36;4.63;;;1.52;;
63688;SDS011;54895;40.928;14.480;2024-02-14T13:30:03;4.15;;;2.17;;
63688;SDS011;54895;40.928;14.480;2024-02-14T13:32:30;1.23;;;0.88;;
63688;SDS011;54895;40.928;14.480;2024-02-14T13:34:56;1.60;;;0.70;;
63688;SDS011;54895;40.928;14.480;2024-02-14T14:30:51;2.75;;;1.00;;
63688;SDS011;54895;40.928;14.480;2024-02-14T14:33:20;2.80;;;1.25;;
63688;SDS011;54895;40.928;14.480;2024-02-14T14:35:46;3.38;;;1.13;;
63688;SDS011;54895;40.928;14.480;2024-02-14T14:40:52;2.10;;;1.10;;
63688;SDS011;54895;40.928;14.480;2024-02-14T14:43:21;3.58;;;1.45;;
63688;SDS011;54895;40.928;14.480;2024-02-14T14:45:48;2.33;;;1.35;;
63688;SDS011;54895;40.928;14.480;2024-02-14T14:48:15;2.65;;;1.45;;
63688;SDS011;54895;40.928;14.480;2024-02-14T14:50:42;3.45;;;1.35;;
63688;SDS011;54895;40.928;14.480;2024-02-14T14:53:09;2.17;;;1.30;;
63688;SDS011;54895;40.928;14.480;2024-02-14T14:55:54;1.90;;;1.20;;
63688;SDS011;54895;40.928;14.480;2024-02-14T14:58:23;1.45;;;1.10;;
63688;SDS011;54895;40.928;14.480;2024-02-14T15:00:55;3.03;;;1.42;;
63688;SDS011;54895;40.928;14.480;2024-02-14T15:03:23;2.88;;;0.90;;
63688;SDS011;54895;40.928;14.480;2024-02-14T15:05:49;1.77;;;1.10;;
63688;SDS011;54895;40.928;14.480;2024-02-14T15:08:15;2.50;;;1.20;;
63688;SDS011;54895;40.928;14.480;2024-02-14T15:10:51;2.10;;;1.05;;
63688;SDS011;54895;40.928;14.480;2024-02-14T15:13:21;4.22;;;1.75;;
63688;SDS011;54895;40.928;14.480;2024-02-14T15:15:49;2.60;;;1.20;;
63688;SDS011;54895;40.928;14.480;2024-02-14T15:18:16;3.50;;;1.27;;
63688;SDS011;54895;40.928;14.480;2024-02-14T15:20:42;1.95;;;1.17;;
63688;SDS011;54895;40.928;14.480;2024-02-14T15:23:09;2.08;;;0.90;;
63688;SDS011;54895;40.928;14.480;2024-02-14T15:25:35;3.22;;;0.90;;
63688;SDS011;54895;40.928;14.480;2024-02-14T15:28:07;3.65;;;1.10;;
63688;SDS011;54895;40.928;14.480;2024-02-14T15:30:47;3.13;;;1.50;;
63688;SDS011;54895;40.928;14.480;2024-02-14T15:33:32;2.08;;;1.20;;
63688;SDS011;54895;40.928;14.480;2024-02-14T15:35:59;1.42;;;0.90;;
63688;SDS011;54895;40.928;14.480;2024-02-14T15:38:25;2.50;;;0.93;;
63688;SDS011;54895;40.928;14.480;2024-02-14T15:40:52;2.03;;;1.17;;
63688;SDS011;54895;40.928;14.480;2024-02-14T15:43:23;2.28;;;1.45;;
63688;SDS011;54895;40.928;14.480;2024-02-14T15:45:50;2.38;;;1.25;;
63688;SDS011;54895;40.928;14.480;2024-02-14T15:48:16;3.35;;;1.20;;
63688;SDS011;54895;40.928;14.480;2024-02-14T15:50:43;2.88;;;1.50;;
63688;SDS011;54895;40.928;14.480;2024-02-14T15:53:09;4.20;;;1.77;;
63688;SDS011;54895;40.928;14.480;2024-02-14T15:55:36;4.35;;;1.60;;
63688;SDS011;54895;40.928;14.480;2024-02-14T15:58:07;2.42;;;1.20;;
63688;SDS011;54895;40.928;14.480;2024-02-14T16:00:36;4.68;;;1.70;;
63688;SDS011;54895;40.928;14.480;2024-02-14T16:03:03;4.97;;;1.80;;
63688;SDS011;54895;40.928;14.480;2024-02-14T16:05:30;4.80;;;1.90;;
63688;SDS011;54895;40.928;14.480;2024-02-14T16:07:58;4.05;;;2.05;;
63688;SDS011;54895;40.928;14.480;2024-02-14T16:10:31;3.22;;;1.63;;